sensor_id;sensor_type;location;lat;lon;timestamp;pressure;altitude;pressure_sealevel;temperature;humidity
32452;BME280;45528;52.102;5.242;2022-08-19T00:01:22;101005.0;;;24.17;62.78
32452;BME280;45528;52.102;5.242;2022-08-19T00:02:59;101006.0;;;24.29;62.22
32452;BME280;45528;52.102;5.242;2022-08-19T00:06:12;100998.0;;;24.23;61.98
32452;BME280;45528;52.102;5.242;2022-08-19T00:07:50;100997.0;;;24.16;62.16
32452;BME280;45528;52.102;5.242;2022-08-19T00:09:27;100997.0;;;24.04;62.02
32452;BME280;45528;52.102;5.242;2022-08-19T00:12:41;100996.0;;;23.96;62.26
32452;BME280;45528;52.102;5.242;2022-08-19T00:14:18;100998.0;;;23.9;62.45
32452;BME280;45528;52.102;5.242;2022-08-19T00:15:55;101003.0;;;23.88;62.53
32452;BME280;45528;52.102;5.242;2022-08-19T00:17:31;101007.0;;;23.9;62.51
32452;BME280;45528;52.102;5.242;2022-08-19T00:20:45;101013.0;;;23.85;62.8
32452;BME280;45528;52.102;5.242;2022-08-19T00:22:21;101014.0;;;23.84;62.86
32452;BME280;45528;52.102;5.242;2022-08-19T00:23:58;101011.0;;;23.83;62.55
32452;BME280;45528;52.102;5.242;2022-08-19T00:27:12;101008.0;;;23.82;62.61
32452;BME280;45528;52.102;5.242;2022-08-19T00:28:49;101010.0;;;23.79;62.59
32452;BME280;45528;52.102;5.242;2022-08-19T00:30:27;101005.0;;;23.8;62.57
32452;BME280;45528;52.102;5.242;2022-08-19T00:32:04;101005.0;;;23.78;62.91
32452;BME280;45528;52.102;5.242;2022-08-19T00:35:18;101003.0;;;23.75;63.06
32452;BME280;45528;52.102;5.242;2022-08-19T00:36:55;101005.0;;;23.78;62.95
32452;BME280;45528;52.102;5.242;2022-08-19T00:38:32;100999.0;;;23.74;63.07
32452;BME280;45528;52.102;5.242;2022-08-19T00:41:50;100999.0;;;23.75;63.01
32452;BME280;45528;52.102;5.242;2022-08-19T00:43:27;101001.0;;;23.77;62.91
32452;BME280;45528;52.102;5.242;2022-08-19T00:45:09;100997.0;;;23.76;62.85
32452;BME280;45528;52.102;5.242;2022-08-19T00:46:49;100992.0;;;23.73;63.01
32452;BME280;45528;52.102;5.242;2022-08-19T00:50:03;100998.0;;;23.71;62.74
32452;BME280;45528;52.102;5.242;2022-08-19T00:51:42;100997.0;;;23.65;62.9
32452;BME280;45528;52.102;5.242;2022-08-19T00:53:24;101005.0;;;23.56;63.18
32452;BME280;45528;52.102;5.242;2022-08-19T00:55:06;101006.0;;;23.6;63.05
32452;BME280;45528;52.102;5.242;2022-08-19T00:58:24;101003.0;;;23.56;63.02
32452;BME280;45528;52.102;5.242;2022-08-19T01:00:08;101001.0;;;23.59;63.15
32452;BME280;45528;52.102;5.242;2022-08-19T01:01:46;100999.0;;;23.52;63.2
32452;BME280;45528;52.102;5.242;2022-08-19T01:05:01;101000.0;;;23.51;63.03
32452;BME280;45528;52.102;5.242;2022-08-19T01:06:41;101001.0;;;23.48;63.27
32452;BME280;45528;52.102;5.242;2022-08-19T01:08:19;100998.0;;;23.48;63.08
32452;BME280;45528;52.102;5.242;2022-08-19T01:09:55;100997.0;;;23.48;62.95
32452;BME280;45528;52.102;5.242;2022-08-19T01:13:20;100994.0;;;23.42;63.0
32452;BME280;45528;52.102;5.242;2022-08-19T01:14:59;100992.0;;;23.42;63.11
32452;BME280;45528;52.102;5.242;2022-08-19T01:16:36;100991.0;;;23.41;63.03
32452;BME280;45528;52.102;5.242;2022-08-19T01:18:16;100993.0;;;23.37;63.26
32452;BME280;45528;52.102;5.242;2022-08-19T01:21:32;100996.0;;;23.42;63.28
32452;BME280;45528;52.102;5.242;2022-08-19T01:23:20;100989.0;;;23.4;63.2
32452;BME280;45528;52.102;5.242;2022-08-19T01:24:56;100988.0;;;23.38;63.2
32452;BME280;45528;52.102;5.242;2022-08-19T01:26:39;100987.0;;;23.31;63.28
32452;BME280;45528;52.102;5.242;2022-08-19T01:29:55;100990.0;;;23.32;63.22
32452;BME280;45528;52.102;5.242;2022-08-19T01:31:31;100988.0;;;23.32;63.11
32452;BME280;45528;52.102;5.242;2022-08-19T01:33:07;100994.0;;;23.33;63.0
32452;BME280;45528;52.102;5.242;2022-08-19T01:36:25;100990.0;;;23.26;63.14
32452;BME280;45528;52.102;5.242;2022-08-19T01:38:09;100997.0;;;23.29;63.21
32452;BME280;45528;52.102;5.242;2022-08-19T01:39:46;101006.0;;;23.25;63.09
32452;BME280;45528;52.102;5.242;2022-08-19T01:41:23;101012.0;;;23.3;63.21
32452;BME280;45528;52.102;5.242;2022-08-19T01:44:38;101016.0;;;23.32;63.2
32452;BME280;45528;52.102;5.242;2022-08-19T01:46:15;101013.0;;;23.29;63.2
32452;BME280;45528;52.102;5.242;2022-08-19T01:47:52;101015.0;;;23.28;63.08
32452;BME280;45528;52.102;5.242;2022-08-19T01:49:29;101008.0;;;23.26;63.06
32452;BME280;45528;52.102;5.242;2022-08-19T01:52:45;101005.0;;;23.28;63.5
32452;BME280;45528;52.102;5.242;2022-08-19T01:54:23;101001.0;;;23.29;63.23
32452;BME280;45528;52.102;5.242;2022-08-19T01:56:01;101002.0;;;23.26;63.2
32452;BME280;45528;52.102;5.242;2022-08-19T01:59:22;101005.0;;;23.28;63.32
32452;BME280;45528;52.102;5.242;2022-08-19T02:01:00;101012.0;;;23.28;63.11
32452;BME280;45528;52.102;5.242;2022-08-19T02:02:36;101010.0;;;23.24;63.22
32452;BME280;45528;52.102;5.242;2022-08-19T02:04:12;101009.0;;;23.22;63.15
32452;BME280;45528;52.102;5.242;2022-08-19T02:07:32;101007.0;;;23.23;63.03
32452;BME280;45528;52.102;5.242;2022-08-19T02:09:08;101006.0;;;23.23;62.9
32452;BME280;45528;52.102;5.242;2022-08-19T02:10:46;101011.0;;;23.21;63.14
32452;BME280;45528;52.102;5.242;2022-08-19T02:13:59;101008.0;;;23.22;63.45
32452;BME280;45528;52.102;5.242;2022-08-19T02:15:37;101013.0;;;23.19;63.13
32452;BME280;45528;52.102;5.242;2022-08-19T02:17:13;101013.0;;;23.17;63.0
32452;BME280;45528;52.102;5.242;2022-08-19T02:18:50;101010.0;;;23.13;63.12
32452;BME280;45528;52.102;5.242;2022-08-19T02:22:04;101006.0;;;23.16;63.14
32452;BME280;45528;52.102;5.242;2022-08-19T02:23:40;101006.0;;;23.15;63.14
32452;BME280;45528;52.102;5.242;2022-08-19T02:25:16;101001.0;;;23.15;63.25
32452;BME280;45528;52.102;5.242;2022-08-19T02:28:29;101005.0;;;23.18;63.57
32452;BME280;45528;52.102;5.242;2022-08-19T02:30:08;101003.0;;;23.21;63.71
32452;BME280;45528;52.102;5.242;2022-08-19T02:31:47;101005.0;;;23.24;63.29
32452;BME280;45528;52.102;5.242;2022-08-19T02:33:23;101012.0;;;23.23;63.07
32452;BME280;45528;52.102;5.242;2022-08-19T02:36:36;101015.0;;;23.23;63.11
32452;BME280;45528;52.102;5.242;2022-08-19T02:38:29;101014.0;;;23.24;63.11
32452;BME280;45528;52.102;5.242;2022-08-19T02:40:07;101014.0;;;23.25;63.47
32452;BME280;45528;52.102;5.242;2022-08-19T02:43:21;101018.0;;;23.32;63.43
32452;BME280;45528;52.102;5.242;2022-08-19T02:44:58;101021.0;;;23.32;63.02
32452;BME280;45528;52.102;5.242;2022-08-19T02:46:34;101017.0;;;23.3;62.84
32452;BME280;45528;52.102;5.242;2022-08-19T02:48:11;101016.0;;;23.29;63.05
32452;BME280;45528;52.102;5.242;2022-08-19T02:51:30;101017.0;;;23.3;63.05
32452;BME280;45528;52.102;5.242;2022-08-19T02:53:08;101013.0;;;23.25;62.99
32452;BME280;45528;52.102;5.242;2022-08-19T02:54:45;101005.0;;;23.25;63.17
32452;BME280;45528;52.102;5.242;2022-08-19T02:57:59;101006.0;;;23.2;63.05
32452;BME280;45528;52.102;5.242;2022-08-19T02:59:36;100996.0;;;23.13;63.12
32452;BME280;45528;52.102;5.242;2022-08-19T03:01:20;100999.0;;;23.08;63.35
32452;BME280;45528;52.102;5.242;2022-08-19T03:02:57;101005.0;;;23.07;63.57
32452;BME280;45528;52.102;5.242;2022-08-19T03:06:13;101006.0;;;23.09;63.54
32452;BME280;45528;52.102;5.242;2022-08-19T03:07:49;101007.0;;;23.16;63.46
32452;BME280;45528;52.102;5.242;2022-08-19T03:09:26;101005.0;;;23.19;63.34
32452;BME280;45528;52.102;5.242;2022-08-19T03:11:03;100999.0;;;23.21;63.3
32452;BME280;45528;52.102;5.242;2022-08-19T03:14:18;100997.0;;;23.2;63.15
32452;BME280;45528;52.102;5.242;2022-08-19T03:15:55;100992.0;;;23.2;62.91
32452;BME280;45528;52.102;5.242;2022-08-19T03:17:30;100992.0;;;23.18;62.7
32452;BME280;45528;52.102;5.242;2022-08-19T03:20:44;100995.0;;;23.16;63.0
32452;BME280;45528;52.102;5.242;2022-08-19T03:22:21;100996.0;;;23.18;63.06
32452;BME280;45528;52.102;5.242;2022-08-19T03:24:02;100993.0;;;23.19;63.09
32452;BME280;45528;52.102;5.242;2022-08-19T03:25:45;100991.0;;;23.14;63.02
32452;BME280;45528;52.102;5.242;2022-08-19T03:29:02;100992.0;;;23.1;63.0
32452;BME280;45528;52.102;5.242;2022-08-19T03:30:42;100998.0;;;23.06;63.15
32452;BME280;45528;52.102;5.242;2022-08-19T03:32:19;101000.0;;;23.09;63.3
32452;BME280;45528;52.102;5.242;2022-08-19T03:35:31;100999.0;;;23.06;62.91
32452;BME280;45528;52.102;5.242;2022-08-19T03:37:10;100997.0;;;23.03;62.95
32452;BME280;45528;52.102;5.242;2022-08-19T03:38:50;100995.0;;;22.98;63.01
32452;BME280;45528;52.102;5.242;2022-08-19T03:40:31;100995.0;;;23.0;63.11
32452;BME280;45528;52.102;5.242;2022-08-19T03:43:47;100991.0;;;22.97;63.2
32452;BME280;45528;52.102;5.242;2022-08-19T03:45:23;100994.0;;;22.96;63.12
32452;BME280;45528;52.102;5.242;2022-08-19T03:47:00;100994.0;;;22.89;63.3
32452;BME280;45528;52.102;5.242;2022-08-19T03:50:15;100991.0;;;22.86;63.57
32452;BME280;45528;52.102;5.242;2022-08-19T03:51:52;100993.0;;;22.87;63.34
32452;BME280;45528;52.102;5.242;2022-08-19T03:53:31;100992.0;;;22.88;63.32
32452;BME280;45528;52.102;5.242;2022-08-19T03:55:08;100996.0;;;22.88;63.37
32452;BME280;45528;52.102;5.242;2022-08-19T03:58:25;100990.0;;;22.99;63.4
32452;BME280;45528;52.102;5.242;2022-08-19T04:00:05;100989.0;;;22.98;63.02
32452;BME280;45528;52.102;5.242;2022-08-19T04:01:42;100986.0;;;22.95;62.89
32452;BME280;45528;52.102;5.242;2022-08-19T04:04:55;100993.0;;;22.88;62.87
32452;BME280;45528;52.102;5.242;2022-08-19T04:06:33;100992.0;;;22.85;62.83
32452;BME280;45528;52.102;5.242;2022-08-19T04:08:11;100999.0;;;22.83;62.75
32452;BME280;45528;52.102;5.242;2022-08-19T04:09:47;100996.0;;;22.81;62.64
32452;BME280;45528;52.102;5.242;2022-08-19T04:13:04;100994.0;;;22.83;62.75
32452;BME280;45528;52.102;5.242;2022-08-19T04:14:41;100996.0;;;22.76;62.92
32452;BME280;45528;52.102;5.242;2022-08-19T04:16:18;100994.0;;;22.77;62.84
32452;BME280;45528;52.102;5.242;2022-08-19T04:19:33;100990.0;;;22.73;62.95
32452;BME280;45528;52.102;5.242;2022-08-19T04:21:16;100988.0;;;22.75;62.73
32452;BME280;45528;52.102;5.242;2022-08-19T04:22:53;100992.0;;;22.72;62.8
32452;BME280;45528;52.102;5.242;2022-08-19T04:24:29;100990.0;;;22.7;62.91
32452;BME280;45528;52.102;5.242;2022-08-19T04:27:46;100993.0;;;22.71;62.99
32452;BME280;45528;52.102;5.242;2022-08-19T04:29:24;100989.0;;;22.7;62.97
32452;BME280;45528;52.102;5.242;2022-08-19T04:31:01;100987.0;;;22.64;62.95
32452;BME280;45528;52.102;5.242;2022-08-19T04:34:18;100981.0;;;22.59;63.13
32452;BME280;45528;52.102;5.242;2022-08-19T04:35:58;100980.0;;;22.56;63.57
32452;BME280;45528;52.102;5.242;2022-08-19T04:37:34;100975.0;;;22.56;63.74
32452;BME280;45528;52.102;5.242;2022-08-19T04:39:12;100976.0;;;22.56;63.78
32452;BME280;45528;52.102;5.242;2022-08-19T04:43:48;100974.0;;;22.55;63.64
32452;BME280;45528;52.102;5.242;2022-08-19T04:45:24;100980.0;;;22.58;63.41
32452;BME280;45528;52.102;5.242;2022-08-19T04:48:38;100977.0;;;22.6;63.18
32452;BME280;45528;52.102;5.242;2022-08-19T04:50:15;100980.0;;;22.6;63.26
32452;BME280;45528;52.102;5.242;2022-08-19T04:51:54;100981.0;;;22.6;63.25
32452;BME280;45528;52.102;5.242;2022-08-19T04:55:11;100988.0;;;22.65;62.99
32452;BME280;45528;52.102;5.242;2022-08-19T04:56:50;100988.0;;;22.63;62.99
32452;BME280;45528;52.102;5.242;2022-08-19T04:58:27;100992.0;;;22.63;63.08
32452;BME280;45528;52.102;5.242;2022-08-19T05:00:06;100991.0;;;22.65;62.96
32452;BME280;45528;52.102;5.242;2022-08-19T05:03:19;101003.0;;;22.63;62.9
32452;BME280;45528;52.102;5.242;2022-08-19T05:04:57;101006.0;;;22.62;63.2
32452;BME280;45528;52.102;5.242;2022-08-19T05:06:35;101008.0;;;22.64;63.03
32452;BME280;45528;52.102;5.242;2022-08-19T05:08:13;101013.0;;;22.64;62.83
32452;BME280;45528;52.102;5.242;2022-08-19T05:11:28;101011.0;;;22.63;62.93
32452;BME280;45528;52.102;5.242;2022-08-19T05:13:09;101011.0;;;22.65;62.96
32452;BME280;45528;52.102;5.242;2022-08-19T05:14:47;101014.0;;;22.71;62.97
32452;BME280;45528;52.102;5.242;2022-08-19T05:24:29;101013.0;;;22.74;63.16
32452;BME280;45528;52.102;5.242;2022-08-19T05:26:07;101019.0;;;22.81;63.08
32452;BME280;45528;52.102;5.242;2022-08-19T05:27:42;101016.0;;;22.88;63.07
32452;BME280;45528;52.102;5.242;2022-08-19T05:29:20;101020.0;;;22.96;63.15
32452;BME280;45528;52.102;5.242;2022-08-19T05:32:34;101022.0;;;23.07;62.95
32452;BME280;45528;52.102;5.242;2022-08-19T05:34:11;101021.0;;;23.16;62.93
32452;BME280;45528;52.102;5.242;2022-08-19T05:35:50;101016.0;;;23.15;63.12
32452;BME280;45528;52.102;5.242;2022-08-19T05:39:04;101020.0;;;23.2;63.33
32452;BME280;45528;52.102;5.242;2022-08-19T05:40:42;101010.0;;;23.25;63.2
32452;BME280;45528;52.102;5.242;2022-08-19T05:42:20;101008.0;;;23.3;63.3
32452;BME280;45528;52.102;5.242;2022-08-19T05:43:57;101010.0;;;23.34;63.36
32452;BME280;45528;52.102;5.242;2022-08-19T05:47:15;101005.0;;;23.43;63.23
32452;BME280;45528;52.102;5.242;2022-08-19T05:48:53;101010.0;;;23.48;63.21
32452;BME280;45528;52.102;5.242;2022-08-19T05:50:30;101013.0;;;23.57;62.91
32452;BME280;45528;52.102;5.242;2022-08-19T05:53:47;101014.0;;;23.7;63.04
32452;BME280;45528;52.102;5.242;2022-08-19T05:55:23;101013.0;;;23.81;62.77
32452;BME280;45528;52.102;5.242;2022-08-19T05:57:00;101011.0;;;23.87;62.78
32452;BME280;45528;52.102;5.242;2022-08-19T05:58:38;101007.0;;;23.89;63.01
32452;BME280;45528;52.102;5.242;2022-08-19T06:01:54;101005.0;;;23.97;63.0
32452;BME280;45528;52.102;5.242;2022-08-19T06:03:31;101002.0;;;24.14;62.67
32452;BME280;45528;52.102;5.242;2022-08-19T06:05:09;101006.0;;;24.13;62.84
32452;BME280;45528;52.102;5.242;2022-08-19T06:08:24;101005.0;;;24.22;62.65
32452;BME280;45528;52.102;5.242;2022-08-19T06:10:02;101007.0;;;24.28;62.74
32452;BME280;45528;52.102;5.242;2022-08-19T06:11:42;101010.0;;;24.43;62.6
32452;BME280;45528;52.102;5.242;2022-08-19T06:13:21;101007.0;;;24.44;62.65
32452;BME280;45528;52.102;5.242;2022-08-19T06:16:36;101008.0;;;24.54;62.9
32452;BME280;45528;52.102;5.242;2022-08-19T06:18:14;101014.0;;;24.62;62.9
32452;BME280;45528;52.102;5.242;2022-08-19T06:19:52;101014.0;;;24.7;62.96
32452;BME280;45528;52.102;5.242;2022-08-19T06:21:29;101016.0;;;24.82;62.51
32452;BME280;45528;52.102;5.242;2022-08-19T06:24:43;101018.0;;;24.86;62.5
32452;BME280;45528;52.102;5.242;2022-08-19T06:26:21;101019.0;;;24.92;62.48
32452;BME280;45528;52.102;5.242;2022-08-19T06:27:57;101017.0;;;25.04;62.18
32452;BME280;45528;52.102;5.242;2022-08-19T06:31:15;101015.0;;;25.03;62.21
32452;BME280;45528;52.102;5.242;2022-08-19T06:32:52;101017.0;;;25.02;62.36
32452;BME280;45528;52.102;5.242;2022-08-19T06:34:31;101016.0;;;25.13;62.07
32452;BME280;45528;52.102;5.242;2022-08-19T06:36:17;101021.0;;;25.17;61.45
32452;BME280;45528;52.102;5.242;2022-08-19T06:39:33;101018.0;;;25.23;61.8
32452;BME280;45528;52.102;5.242;2022-08-19T06:41:14;101018.0;;;25.18;61.99
32452;BME280;45528;52.102;5.242;2022-08-19T06:42:50;101022.0;;;25.21;62.17
32452;BME280;45528;52.102;5.242;2022-08-19T06:44:30;101020.0;;;25.2;62.37
32452;BME280;45528;52.102;5.242;2022-08-19T06:47:48;101024.0;;;25.25;62.27
32452;BME280;45528;52.102;5.242;2022-08-19T06:49:30;101022.0;;;25.28;62.0
32452;BME280;45528;52.102;5.242;2022-08-19T06:51:08;101024.0;;;25.23;62.07
32452;BME280;45528;52.102;5.242;2022-08-19T06:54:20;101022.0;;;25.23;62.12
32452;BME280;45528;52.102;5.242;2022-08-19T06:56:00;101018.0;;;25.35;61.95
32452;BME280;45528;52.102;5.242;2022-08-19T06:57:36;101017.0;;;25.32;61.5
32452;BME280;45528;52.102;5.242;2022-08-19T06:59:21;101022.0;;;25.2;62.02
32452;BME280;45528;52.102;5.242;2022-08-19T07:02:40;101024.0;;;25.3;61.8
32452;BME280;45528;52.102;5.242;2022-08-19T07:04:19;101020.0;;;25.32;62.03
32452;BME280;45528;52.102;5.242;2022-08-19T07:05:56;101026.0;;;25.33;62.14
32452;BME280;45528;52.102;5.242;2022-08-19T07:07:34;101030.0;;;25.45;61.77
32452;BME280;45528;52.102;5.242;2022-08-19T07:10:53;101025.0;;;25.45;61.74
32452;BME280;45528;52.102;5.242;2022-08-19T07:12:30;101026.0;;;25.56;61.7
32452;BME280;45528;52.102;5.242;2022-08-19T07:14:07;101028.0;;;25.57;61.64
32452;BME280;45528;52.102;5.242;2022-08-19T07:17:22;101028.0;;;25.56;61.25
32452;BME280;45528;52.102;5.242;2022-08-19T07:18:59;101032.0;;;25.57;61.29
32452;BME280;45528;52.102;5.242;2022-08-19T07:20:37;101034.0;;;25.69;60.95
32452;BME280;45528;52.102;5.242;2022-08-19T07:22:15;101036.0;;;25.7;60.92
32452;BME280;45528;52.102;5.242;2022-08-19T07:25:28;101042.0;;;25.77;60.47
32452;BME280;45528;52.102;5.242;2022-08-19T07:27:05;101048.0;;;25.73;60.72
32452;BME280;45528;52.102;5.242;2022-08-19T07:28:43;101041.0;;;25.72;60.53
32452;BME280;45528;52.102;5.242;2022-08-19T07:32:00;101044.0;;;25.83;60.46
32452;BME280;45528;52.102;5.242;2022-08-19T07:33:37;101050.0;;;25.88;60.28
32452;BME280;45528;52.102;5.242;2022-08-19T07:35:14;101047.0;;;25.88;60.19
32452;BME280;45528;52.102;5.242;2022-08-19T07:36:51;101043.0;;;25.81;59.8
32452;BME280;45528;52.102;5.242;2022-08-19T07:40:06;101038.0;;;25.92;59.51
32452;BME280;45528;52.102;5.242;2022-08-19T07:41:43;101038.0;;;25.82;60.11
32452;BME280;45528;52.102;5.242;2022-08-19T07:43:25;101039.0;;;25.89;59.46
32452;BME280;45528;52.102;5.242;2022-08-19T07:46:46;101044.0;;;25.89;59.58
32452;BME280;45528;52.102;5.242;2022-08-19T07:48:29;101046.0;;;25.91;59.88
32452;BME280;45528;52.102;5.242;2022-08-19T07:50:08;101048.0;;;25.89;59.05
32452;BME280;45528;52.102;5.242;2022-08-19T07:51:48;101055.0;;;25.94;59.07
32452;BME280;45528;52.102;5.242;2022-08-19T07:55:05;101057.0;;;25.97;59.15
32452;BME280;45528;52.102;5.242;2022-08-19T07:56:42;101062.0;;;26.0;59.3
32452;BME280;45528;52.102;5.242;2022-08-19T07:58:20;101062.0;;;26.03;59.19
32452;BME280;45528;52.102;5.242;2022-08-19T07:59:58;101057.0;;;26.16;58.8
32452;BME280;45528;52.102;5.242;2022-08-19T08:03:13;101064.0;;;26.13;58.6
32452;BME280;45528;52.102;5.242;2022-08-19T08:09:31;101064.0;;;26.25;58.61
32452;BME280;45528;52.102;5.242;2022-08-19T08:11:08;101068.0;;;26.4;58.1
32452;BME280;45528;52.102;5.242;2022-08-19T08:12:46;101072.0;;;26.4;58.72
32452;BME280;45528;52.102;5.242;2022-08-19T08:16:03;101080.0;;;26.55;57.98
32452;BME280;45528;52.102;5.242;2022-08-19T08:17:40;101084.0;;;26.77;57.56
32452;BME280;45528;52.102;5.242;2022-08-19T08:19:20;101089.0;;;26.77;57.93
32452;BME280;45528;52.102;5.242;2022-08-19T08:20:57;101091.0;;;26.79;57.56
32452;BME280;45528;52.102;5.242;2022-08-19T08:25:16;101089.0;;;27.18;55.96
32452;BME280;45528;52.102;5.242;2022-08-19T08:28:35;101088.0;;;27.17;55.95
32452;BME280;45528;52.102;5.242;2022-08-19T08:30:15;101085.0;;;27.13;55.47
32452;BME280;45528;52.102;5.242;2022-08-19T08:31:54;101089.0;;;27.22;55.24
32452;BME280;45528;52.102;5.242;2022-08-19T08:33:30;101094.0;;;27.24;55.59
32452;BME280;45528;52.102;5.242;2022-08-19T08:36:48;101098.0;;;27.3;55.87
32452;BME280;45528;52.102;5.242;2022-08-19T08:38:25;101096.0;;;27.34;56.12
32452;BME280;45528;52.102;5.242;2022-08-19T08:40:03;101098.0;;;27.36;55.77
32452;BME280;45528;52.102;5.242;2022-08-19T08:41:46;101098.0;;;27.42;55.65
32452;BME280;45528;52.102;5.242;2022-08-19T08:45:16;101094.0;;;27.44;55.22
32452;BME280;45528;52.102;5.242;2022-08-19T08:46:57;101093.0;;;27.5;55.58
32452;BME280;45528;52.102;5.242;2022-08-19T08:48:40;101091.0;;;27.57;55.99
32452;BME280;45528;52.102;5.242;2022-08-19T08:50:25;101093.0;;;27.59;55.43
32452;BME280;45528;52.102;5.242;2022-08-19T08:52:06;101087.0;;;27.82;54.71
32452;BME280;45528;52.102;5.242;2022-08-19T08:55:28;101090.0;;;27.96;54.97
32452;BME280;45528;52.102;5.242;2022-08-19T08:57:10;101090.0;;;28.04;53.88
32452;BME280;45528;52.102;5.242;2022-08-19T08:58:59;101095.0;;;28.13;53.45
32452;BME280;45528;52.102;5.242;2022-08-19T09:00:40;101092.0;;;28.08;52.95
32452;BME280;45528;52.102;5.242;2022-08-19T09:03:56;101095.0;;;28.18;53.05
32452;BME280;45528;52.102;5.242;2022-08-19T09:05:40;101094.0;;;28.27;51.81
32452;BME280;45528;52.102;5.242;2022-08-19T09:07:48;101092.0;;;28.32;52.82
32452;BME280;45528;52.102;5.242;2022-08-19T09:09:34;101096.0;;;28.35;52.53
32452;BME280;45528;52.102;5.242;2022-08-19T09:11:19;101098.0;;;28.37;52.54
32452;BME280;45528;52.102;5.242;2022-08-19T09:13:20;101098.0;;;28.35;52.51
32452;BME280;45528;52.102;5.242;2022-08-19T09:16:41;101106.0;;;28.38;53.05
32452;BME280;45528;52.102;5.242;2022-08-19T09:18:18;101106.0;;;28.35;52.79
32452;BME280;45528;52.102;5.242;2022-08-19T09:19:58;101106.0;;;28.31;52.45
32452;BME280;45528;52.102;5.242;2022-08-19T09:21:35;101105.0;;;28.19;52.91
32452;BME280;45528;52.102;5.242;2022-08-19T09:24:48;101108.0;;;28.15;53.01
32452;BME280;45528;52.102;5.242;2022-08-19T09:26:25;101102.0;;;28.17;53.03
32452;BME280;45528;52.102;5.242;2022-08-19T09:28:03;101100.0;;;28.14;52.86
32452;BME280;45528;52.102;5.242;2022-08-19T09:31:17;101099.0;;;28.13;53.19
32452;BME280;45528;52.102;5.242;2022-08-19T09:33:01;101102.0;;;28.23;53.03
32452;BME280;45528;52.102;5.242;2022-08-19T09:34:37;101103.0;;;28.19;52.37
32452;BME280;45528;52.102;5.242;2022-08-19T09:36:15;101105.0;;;28.47;51.77
32452;BME280;45528;52.102;5.242;2022-08-19T09:39:31;101105.0;;;28.51;51.26
32452;BME280;45528;52.102;5.242;2022-08-19T09:41:09;101110.0;;;28.49;51.7
32452;BME280;45528;52.102;5.242;2022-08-19T09:42:48;101111.0;;;28.42;51.22
32452;BME280;45528;52.102;5.242;2022-08-19T09:44:24;101110.0;;;28.35;51.79
32452;BME280;45528;52.102;5.242;2022-08-19T09:47:38;101110.0;;;28.39;52.92
32452;BME280;45528;52.102;5.242;2022-08-19T09:49:15;101113.0;;;28.43;52.64
32452;BME280;45528;52.102;5.242;2022-08-19T09:50:52;101115.0;;;28.51;52.21
32452;BME280;45528;52.102;5.242;2022-08-19T09:54:05;101115.0;;;28.56;52.36
32452;BME280;45528;52.102;5.242;2022-08-19T09:55:41;101117.0;;;28.53;52.32
32452;BME280;45528;52.102;5.242;2022-08-19T09:57:18;101117.0;;;28.55;52.24
32452;BME280;45528;52.102;5.242;2022-08-19T10:00:30;101115.0;;;28.55;52.27
32452;BME280;45528;52.102;5.242;2022-08-19T10:02:10;101110.0;;;28.54;52.35
32452;BME280;45528;52.102;5.242;2022-08-19T10:03:47;101113.0;;;28.57;52.48
32452;BME280;45528;52.102;5.242;2022-08-19T10:05:58;101114.0;;;28.56;52.43
32452;BME280;45528;52.102;5.242;2022-08-19T10:07:35;101110.0;;;28.54;52.15
32452;BME280;45528;52.102;5.242;2022-08-19T10:10:51;101112.0;;;28.63;51.85
32452;BME280;45528;52.102;5.242;2022-08-19T10:12:28;101105.0;;;28.67;51.87
32452;BME280;45528;52.102;5.242;2022-08-19T10:14:06;101107.0;;;28.68;52.31
32452;BME280;45528;52.102;5.242;2022-08-19T10:17:20;101105.0;;;28.63;52.44
32452;BME280;45528;52.102;5.242;2022-08-19T10:18:57;101110.0;;;28.63;52.23
32452;BME280;45528;52.102;5.242;2022-08-19T10:20:35;101106.0;;;28.69;52.54
32452;BME280;45528;52.102;5.242;2022-08-19T10:22:14;101099.0;;;28.68;52.11
32452;BME280;45528;52.102;5.242;2022-08-19T10:25:32;101100.0;;;28.8;52.71
32452;BME280;45528;52.102;5.242;2022-08-19T10:27:09;101105.0;;;28.85;53.52
32452;BME280;45528;52.102;5.242;2022-08-19T10:28:47;101102.0;;;28.88;52.14
32452;BME280;45528;52.102;5.242;2022-08-19T10:30:23;101107.0;;;28.99;52.52
32452;BME280;45528;52.102;5.242;2022-08-19T10:33:38;101108.0;;;28.94;52.81
32452;BME280;45528;52.102;5.242;2022-08-19T10:35:16;101107.0;;;29.0;52.6
32452;BME280;45528;52.102;5.242;2022-08-19T10:36:52;101106.0;;;29.03;53.14
32452;BME280;45528;52.102;5.242;2022-08-19T10:40:08;101102.0;;;29.08;53.25
32452;BME280;45528;52.102;5.242;2022-08-19T10:41:44;101101.0;;;29.2;52.84
32452;BME280;45528;52.102;5.242;2022-08-19T10:43:20;101103.0;;;29.41;52.45
32452;BME280;45528;52.102;5.242;2022-08-19T10:46:39;101106.0;;;29.59;52.78
32452;BME280;45528;52.102;5.242;2022-08-19T10:48:16;101107.0;;;29.68;52.68
32452;BME280;45528;52.102;5.242;2022-08-19T10:52:47;101102.0;;;29.71;51.94
32452;BME280;45528;52.102;5.242;2022-08-19T10:56:51;101103.0;;;29.69;51.52
32452;BME280;45528;52.102;5.242;2022-08-19T10:58:27;101099.0;;;29.77;52.12
32452;BME280;45528;52.102;5.242;2022-08-19T11:00:04;101105.0;;;29.88;51.84
32452;BME280;45528;52.102;5.242;2022-08-19T11:03:19;101100.0;;;29.91;51.36
32452;BME280;45528;52.102;5.242;2022-08-19T11:04:56;101098.0;;;29.95;51.12
32452;BME280;45528;52.102;5.242;2022-08-19T11:06:32;101095.0;;;30.01;50.54
32452;BME280;45528;52.102;5.242;2022-08-19T11:08:11;101094.0;;;30.01;51.17
32452;BME280;45528;52.102;5.242;2022-08-19T11:11:24;101089.0;;;30.05;51.32
32452;BME280;45528;52.102;5.242;2022-08-19T11:13:00;101094.0;;;30.16;51.76
32452;BME280;45528;52.102;5.242;2022-08-19T11:14:36;101094.0;;;30.05;51.19
32452;BME280;45528;52.102;5.242;2022-08-19T11:17:54;101093.0;;;30.1;50.96
32452;BME280;45528;52.102;5.242;2022-08-19T11:19:32;101093.0;;;30.13;51.51
32452;BME280;45528;52.102;5.242;2022-08-19T11:21:12;101092.0;;;30.39;50.81
32452;BME280;45528;52.102;5.242;2022-08-19T11:22:51;101082.0;;;30.43;50.49
32452;BME280;45528;52.102;5.242;2022-08-19T11:26:04;101085.0;;;30.57;49.43